sensor_id;sensor_type;location;lat;lon;timestamp;P1;durP1;ratioP1;P2;durP2;ratioP2
49510;SDS011;35413;48.776;9.204;2022-07-29T00:02:03;2.05;;;1.67;;
49510;SDS011;35413;48.776;9.204;2022-07-29T00:04:29;2.17;;;1.80;;
49510;SDS011;35413;48.776;9.204;2022-07-29T00:06:54;2.63;;;2.22;;
49510;SDS011;35413;48.776;9.204;2022-07-29T00:09:20;2.10;;;1.77;;
49510;SDS011;35413;48.776;9.204;2022-07-29T00:11:46;2.45;;;1.95;;
49510;SDS011;35413;48.776;9.204;2022-07-29T00:14:11;3.17;;;1.90;;
49510;SDS011;35413;48.776;9.204;2022-07-29T00:16:37;2.03;;;1.80;;
49510;SDS011;35413;48.776;9.204;2022-07-29T00:19:04;2.30;;;1.80;;
49510;SDS011;35413;48.776;9.204;2022-07-29T00:21:29;3.42;;;1.88;;
49510;SDS011;35413;48.776;9.204;2022-07-29T00:23:55;2.50;;;1.70;;
49510;SDS011;35413;48.776;9.204;2022-07-29T00:26:21;3.15;;;2.05;;
49510;SDS011;35413;48.776;9.204;2022-07-29T00:28:46;2.88;;;2.17;;
49510;SDS011;35413;48.776;9.204;2022-07-29T00:31:12;2.33;;;2.10;;
49510;SDS011;35413;48.776;9.204;2022-07-29T00:33:38;2.67;;;2.13;;
49510;SDS011;35413;48.776;9.204;2022-07-29T00:36:03;2.65;;;2.00;;
49510;SDS011;35413;48.776;9.204;2022-07-29T00:38:29;2.05;;;1.80;;
49510;SDS011;35413;48.776;9.204;2022-07-29T00:40:55;3.25;;;2.10;;
49510;SDS011;35413;48.776;9.204;2022-07-29T00:43:20;2.83;;;1.80;;
49510;SDS011;35413;48.776;9.204;2022-07-29T00:45:46;1.85;;;1.58;;
49510;SDS011;35413;48.776;9.204;2022-07-29T00:48:12;1.92;;;1.65;;
49510;SDS011;35413;48.776;9.204;2022-07-29T00:50:38;3.15;;;1.65;;
49510;SDS011;35413;48.776;9.204;2022-07-29T00:53:04;2.58;;;1.67;;
49510;SDS011;35413;48.776;9.204;2022-07-29T00:55:32;3.17;;;1.90;;
49510;SDS011;35413;48.776;9.204;2022-07-29T00:57:58;1.75;;;1.58;;
49510;SDS011;35413;48.776;9.204;2022-07-29T01:00:24;3.28;;;2.35;;
49510;SDS011;35413;48.776;9.204;2022-07-29T01:02:51;2.90;;;1.80;;
49510;SDS011;35413;48.776;9.204;2022-07-29T01:05:18;4.05;;;1.98;;
49510;SDS011;35413;48.776;9.204;2022-07-29T01:07:48;3.13;;;2.05;;
49510;SDS011;35413;48.776;9.204;2022-07-29T01:10:16;5.43;;;1.95;;
49510;SDS011;35413;48.776;9.204;2022-07-29T01:12:45;2.40;;;1.80;;
49510;SDS011;35413;48.776;9.204;2022-07-29T01:15:13;2.95;;;1.90;;
49510;SDS011;35413;48.776;9.204;2022-07-29T01:28:56;2.00;;;1.80;;
49510;SDS011;35413;48.776;9.204;2022-07-29T01:37:22;2.05;;;1.85;;
49510;SDS011;35413;48.776;9.204;2022-07-29T01:40:01;1.90;;;1.70;;
49510;SDS011;35413;48.776;9.204;2022-07-29T01:42:36;2.47;;;2.00;;
49510;SDS011;35413;48.776;9.204;2022-07-29T01:48:23;3.65;;;1.90;;
49510;SDS011;35413;48.776;9.204;2022-07-29T01:50:58;4.13;;;2.00;;
49510;SDS011;35413;48.776;9.204;2022-07-29T01:53:50;2.22;;;1.52;;
49510;SDS011;35413;48.776;9.204;2022-07-29T01:56:24;2.03;;;1.70;;
49510;SDS011;35413;48.776;9.204;2022-07-29T01:58:54;2.53;;;2.10;;
49510;SDS011;35413;48.776;9.204;2022-07-29T02:01:21;2.28;;;1.52;;
49510;SDS011;35413;48.776;9.204;2022-07-29T02:03:50;2.25;;;1.50;;
49510;SDS011;35413;48.776;9.204;2022-07-29T02:06:18;2.75;;;1.60;;
49510;SDS011;35413;48.776;9.204;2022-07-29T02:08:47;2.35;;;1.80;;
49510;SDS011;35413;48.776;9.204;2022-07-29T02:11:14;2.25;;;1.73;;
49510;SDS011;35413;48.776;9.204;2022-07-29T02:13:40;2.67;;;1.92;;
49510;SDS011;35413;48.776;9.204;2022-07-29T02:16:08;2.35;;;1.75;;
49510;SDS011;35413;48.776;9.204;2022-07-29T02:18:36;2.15;;;1.92;;
49510;SDS011;35413;48.776;9.204;2022-07-29T02:21:04;2.42;;;1.73;;
49510;SDS011;35413;48.776;9.204;2022-07-29T02:23:30;2.10;;;1.90;;
49510;SDS011;35413;48.776;9.204;2022-07-29T02:25:57;2.10;;;1.83;;
49510;SDS011;35413;48.776;9.204;2022-07-29T02:28:25;1.73;;;1.60;;
49510;SDS011;35413;48.776;9.204;2022-07-29T02:30:53;2.03;;;1.83;;
49510;SDS011;35413;48.776;9.204;2022-07-29T02:33:24;2.05;;;1.50;;
49510;SDS011;35413;48.776;9.204;2022-07-29T02:35:50;2.03;;;1.80;;
49510;SDS011;35413;48.776;9.204;2022-07-29T02:38:18;5.20;;;2.00;;
49510;SDS011;35413;48.776;9.204;2022-07-29T02:41:13;1.70;;;1.50;;
49510;SDS011;35413;48.776;9.204;2022-07-29T02:43:44;2.00;;;1.58;;
49510;SDS011;35413;48.776;9.204;2022-07-29T02:46:13;1.70;;;1.60;;
49510;SDS011;35413;48.776;9.204;2022-07-29T02:48:46;1.30;;;1.20;;
49510;SDS011;35413;48.776;9.204;2022-07-29T02:51:35;1.70;;;1.50;;
49510;SDS011;35413;48.776;9.204;2022-07-29T02:54:07;2.65;;;1.75;;
49510;SDS011;35413;48.776;9.204;2022-07-29T02:56:35;2.00;;;1.73;;
49510;SDS011;35413;48.776;9.204;2022-07-29T02:59:04;1.55;;;1.45;;
49510;SDS011;35413;48.776;9.204;2022-07-29T03:01:34;2.58;;;1.73;;
49510;SDS011;35413;48.776;9.204;2022-07-29T03:04:04;2.13;;;1.63;;
49510;SDS011;35413;48.776;9.204;2022-07-29T03:06:30;2.10;;;1.65;;
49510;SDS011;35413;48.776;9.204;2022-07-29T03:08:59;2.88;;;1.45;;
49510;SDS011;35413;48.776;9.204;2022-07-29T03:11:25;1.52;;;1.23;;
49510;SDS011;35413;48.776;9.204;2022-07-29T03:13:51;1.65;;;1.33;;
49510;SDS011;35413;48.776;9.204;2022-07-29T03:16:18;1.65;;;1.45;;
49510;SDS011;35413;48.776;9.204;2022-07-29T03:18:44;1.85;;;1.65;;
49510;SDS011;35413;48.776;9.204;2022-07-29T03:21:11;2.30;;;1.60;;
49510;SDS011;35413;48.776;9.204;2022-07-29T03:23:37;3.35;;;2.25;;
49510;SDS011;35413;48.776;9.204;2022-07-29T03:26:08;2.75;;;2.03;;
49510;SDS011;35413;48.776;9.204;2022-07-29T03:28:33;2.42;;;1.98;;
49510;SDS011;35413;48.776;9.204;2022-07-29T03:30:59;3.03;;;1.95;;
49510;SDS011;35413;48.776;9.204;2022-07-29T03:33:26;2.88;;;2.38;;
49510;SDS011;35413;48.776;9.204;2022-07-29T03:35:53;3.55;;;2.25;;
49510;SDS011;35413;48.776;9.204;2022-07-29T03:38:19;3.88;;;2.20;;
49510;SDS011;35413;48.776;9.204;2022-07-29T03:40:53;2.15;;;1.95;;
49510;SDS011;35413;48.776;9.204;2022-07-29T03:43:21;3.85;;;1.92;;
49510;SDS011;35413;48.776;9.204;2022-07-29T03:45:49;2.95;;;2.22;;
49510;SDS011;35413;48.776;9.204;2022-07-29T03:48:19;3.58;;;1.52;;
49510;SDS011;35413;48.776;9.204;2022-07-29T03:50:46;3.83;;;2.20;;
49510;SDS011;35413;48.776;9.204;2022-07-29T03:53:13;3.08;;;2.17;;
49510;SDS011;35413;48.776;9.204;2022-07-29T03:55:45;3.42;;;2.00;;
49510;SDS011;35413;48.776;9.204;2022-07-29T03:58:15;2.97;;;2.05;;
49510;SDS011;35413;48.776;9.204;2022-07-29T04:00:43;2.40;;;2.13;;
49510;SDS011;35413;48.776;9.204;2022-07-29T04:03:09;2.90;;;1.90;;
49510;SDS011;35413;48.776;9.204;2022-07-29T04:05:35;2.38;;;1.80;;
49510;SDS011;35413;48.776;9.204;2022-07-29T04:08:01;3.13;;;1.80;;
49510;SDS011;35413;48.776;9.204;2022-07-29T04:10:27;2.58;;;2.05;;
49510;SDS011;35413;48.776;9.204;2022-07-29T04:12:53;2.58;;;2.00;;
49510;SDS011;35413;48.776;9.204;2022-07-29T04:15:19;4.82;;;2.47;;
49510;SDS011;35413;48.776;9.204;2022-07-29T04:17:45;4.60;;;1.95;;
49510;SDS011;35413;48.776;9.204;2022-07-29T04:20:10;3.85;;;1.95;;
49510;SDS011;35413;48.776;9.204;2022-07-29T04:22:39;3.83;;;1.95;;
49510;SDS011;35413;48.776;9.204;2022-07-29T04:25:05;2.78;;;2.17;;
49510;SDS011;35413;48.776;9.204;2022-07-29T04:27:31;2.38;;;1.70;;
49510;SDS011;35413;48.776;9.204;2022-07-29T04:29:57;2.38;;;2.15;;
49510;SDS011;35413;48.776;9.204;2022-07-29T04:32:23;2.17;;;1.80;;
49510;SDS011;35413;48.776;9.204;2022-07-29T04:34:49;2.70;;;1.98;;
49510;SDS011;35413;48.776;9.204;2022-07-29T04:37:14;2.13;;;1.83;;
49510;SDS011;35413;48.776;9.204;2022-07-29T04:39:40;3.25;;;1.80;;
49510;SDS011;35413;48.776;9.204;2022-07-29T04:42:05;2.38;;;1.90;;
49510;SDS011;35413;48.776;9.204;2022-07-29T04:44:31;1.83;;;1.63;;
49510;SDS011;35413;48.776;9.204;2022-07-29T04:46:57;3.00;;;1.80;;
49510;SDS011;35413;48.776;9.204;2022-07-29T04:49:22;2.75;;;2.38;;
49510;SDS011;35413;48.776;9.204;2022-07-29T04:51:48;2.38;;;1.80;;
49510;SDS011;35413;48.776;9.204;2022-07-29T04:54:14;4.45;;;2.25;;
49510;SDS011;35413;48.776;9.204;2022-07-29T04:56:39;2.17;;;1.98;;
49510;SDS011;35413;48.776;9.204;2022-07-29T04:59:06;4.80;;;1.83;;
49510;SDS011;35413;48.776;9.204;2022-07-29T05:01:32;4.35;;;2.90;;
49510;SDS011;35413;48.776;9.204;2022-07-29T05:03:57;2.20;;;1.80;;
49510;SDS011;35413;48.776;9.204;2022-07-29T05:06:23;3.15;;;1.77;;
49510;SDS011;35413;48.776;9.204;2022-07-29T05:08:48;3.17;;;1.92;;
49510;SDS011;35413;48.776;9.204;2022-07-29T05:11:14;2.15;;;1.70;;
49510;SDS011;35413;48.776;9.204;2022-07-29T05:13:40;3.70;;;2.25;;
49510;SDS011;35413;48.776;9.204;2022-07-29T05:16:06;2.65;;;1.77;;
49510;SDS011;35413;48.776;9.204;2022-07-29T05:18:33;3.20;;;2.00;;
49510;SDS011;35413;48.776;9.204;2022-07-29T05:20:59;2.33;;;1.60;;
49510;SDS011;35413;48.776;9.204;2022-07-29T05:23:24;2.03;;;1.42;;
49510;SDS011;35413;48.776;9.204;2022-07-29T05:25:50;2.47;;;1.80;;
49510;SDS011;35413;48.776;9.204;2022-07-29T05:28:15;4.93;;;1.80;;
49510;SDS011;35413;48.776;9.204;2022-07-29T05:30:41;2.28;;;1.95;;
49510;SDS011;35413;48.776;9.204;2022-07-29T05:33:07;1.55;;;1.30;;
49510;SDS011;35413;48.776;9.204;2022-07-29T05:35:32;4.05;;;1.88;;
49510;SDS011;35413;48.776;9.204;2022-07-29T05:37:59;3.53;;;1.70;;
49510;SDS011;35413;48.776;9.204;2022-07-29T05:40:25;2.08;;;1.73;;
49510;SDS011;35413;48.776;9.204;2022-07-29T05:42:51;2.22;;;1.85;;
49510;SDS011;35413;48.776;9.204;2022-07-29T05:45:16;1.77;;;1.52;;
49510;SDS011;35413;48.776;9.204;2022-07-29T05:47:42;3.40;;;1.67;;
49510;SDS011;35413;48.776;9.204;2022-07-29T05:50:08;1.90;;;1.40;;
49510;SDS011;35413;48.776;9.204;2022-07-29T05:52:33;2.45;;;1.67;;
49510;SDS011;35413;48.776;9.204;2022-07-29T05:54:59;1.60;;;1.30;;
49510;SDS011;35413;48.776;9.204;2022-07-29T05:57:27;1.42;;;1.13;;
49510;SDS011;35413;48.776;9.204;2022-07-29T05:59:53;1.98;;;1.33;;
49510;SDS011;35413;48.776;9.204;2022-07-29T06:02:19;2.45;;;1.42;;
49510;SDS011;35413;48.776;9.204;2022-07-29T06:04:44;2.55;;;1.30;;
49510;SDS011;35413;48.776;9.204;2022-07-29T06:07:10;1.27;;;1.10;;
49510;SDS011;35413;48.776;9.204;2022-07-29T06:09:36;4.05;;;1.40;;
49510;SDS011;35413;48.776;9.204;2022-07-29T06:12:02;2.35;;;1.40;;
49510;SDS011;35413;48.776;9.204;2022-07-29T06:14:28;4.45;;;1.48;;
49510;SDS011;35413;48.776;9.204;2022-07-29T06:16:54;2.65;;;1.60;;
49510;SDS011;35413;48.776;9.204;2022-07-29T06:19:20;1.50;;;1.40;;
49510;SDS011;35413;48.776;9.204;2022-07-29T06:21:46;1.30;;;1.20;;
49510;SDS011;35413;48.776;9.204;2022-07-29T06:24:13;1.95;;;1.45;;
49510;SDS011;35413;48.776;9.204;2022-07-29T06:26:39;2.55;;;2.30;;
49510;SDS011;35413;48.776;9.204;2022-07-29T06:29:06;1.48;;;1.38;;
49510;SDS011;35413;48.776;9.204;2022-07-29T06:31:32;1.70;;;1.48;;
49510;SDS011;35413;48.776;9.204;2022-07-29T06:33:57;3.42;;;1.73;;
49510;SDS011;35413;48.776;9.204;2022-07-29T06:36:23;6.57;;;1.65;;
49510;SDS011;35413;48.776;9.204;2022-07-29T06:38:49;3.90;;;1.52;;
49510;SDS011;35413;48.776;9.204;2022-07-29T06:41:14;1.50;;;1.20;;
49510;SDS011;35413;48.776;9.204;2022-07-29T06:43:41;2.10;;;1.52;;
49510;SDS011;35413;48.776;9.204;2022-07-29T06:46:10;2.00;;;1.73;;
49510;SDS011;35413;48.776;9.204;2022-07-29T06:48:37;1.60;;;1.40;;
49510;SDS011;35413;48.776;9.204;2022-07-29T06:51:04;5.15;;;1.52;;
49510;SDS011;35413;48.776;9.204;2022-07-29T06:53:31;1.35;;;1.20;;
49510;SDS011;35413;48.776;9.204;2022-07-29T06:55:57;1.92;;;1.60;;
49510;SDS011;35413;48.776;9.204;2022-07-29T06:58:24;1.80;;;1.42;;
49510;SDS011;35413;48.776;9.204;2022-07-29T07:00:51;2.90;;;1.60;;
49510;SDS011;35413;48.776;9.204;2022-07-29T07:03:17;2.10;;;1.30;;
49510;SDS011;35413;48.776;9.204;2022-07-29T07:05:43;1.65;;;1.50;;
49510;SDS011;35413;48.776;9.204;2022-07-29T07:08:10;3.28;;;1.73;;
49510;SDS011;35413;48.776;9.204;2022-07-29T07:10:36;1.70;;;1.50;;
49510;SDS011;35413;48.776;9.204;2022-07-29T07:13:02;1.65;;;1.30;;
49510;SDS011;35413;48.776;9.204;2022-07-29T07:15:29;2.20;;;1.52;;
49510;SDS011;35413;48.776;9.204;2022-07-29T07:17:55;2.53;;;1.60;;
49510;SDS011;35413;48.776;9.204;2022-07-29T07:20:20;2.20;;;1.50;;
49510;SDS011;35413;48.776;9.204;2022-07-29T07:22:46;2.00;;;1.60;;
49510;SDS011;35413;48.776;9.204;2022-07-29T07:25:12;3.13;;;1.70;;
49510;SDS011;35413;48.776;9.204;2022-07-29T07:27:38;4.25;;;2.47;;
49510;SDS011;35413;48.776;9.204;2022-07-29T07:30:04;1.90;;;1.40;;
49510;SDS011;35413;48.776;9.204;2022-07-29T07:32:34;2.78;;;1.52;;
49510;SDS011;35413;48.776;9.204;2022-07-29T07:35:00;3.08;;;1.65;;
49510;SDS011;35413;48.776;9.204;2022-07-29T07:37:26;1.40;;;1.20;;
49510;SDS011;35413;48.776;9.204;2022-07-29T07:39:52;2.67;;;1.80;;
49510;SDS011;35413;48.776;9.204;2022-07-29T07:42:18;5.43;;;1.50;;
49510;SDS011;35413;48.776;9.204;2022-07-29T07:44:44;2.58;;;1.60;;
49510;SDS011;35413;48.776;9.204;2022-07-29T07:47:11;3.47;;;1.95;;
49510;SDS011;35413;48.776;9.204;2022-07-29T07:49:37;4.28;;;1.73;;
49510;SDS011;35413;48.776;9.204;2022-07-29T07:52:03;2.92;;;1.67;;
49510;SDS011;35413;48.776;9.204;2022-07-29T07:54:29;1.63;;;1.50;;
49510;SDS011;35413;48.776;9.204;2022-07-29T07:56:54;1.98;;;1.50;;
49510;SDS011;35413;48.776;9.204;2022-07-29T07:59:20;2.40;;;1.90;;
49510;SDS011;35413;48.776;9.204;2022-07-29T08:01:46;2.28;;;1.60;;
49510;SDS011;35413;48.776;9.204;2022-07-29T08:04:11;2.33;;;1.50;;
49510;SDS011;35413;48.776;9.204;2022-07-29T08:06:37;2.25;;;1.70;;
49510;SDS011;35413;48.776;9.204;2022-07-29T08:09:03;1.85;;;1.40;;
49510;SDS011;35413;48.776;9.204;2022-07-29T08:11:29;5.05;;;1.52;;
49510;SDS011;35413;48.776;9.204;2022-07-29T08:13:55;3.35;;;1.85;;
49510;SDS011;35413;48.776;9.204;2022-07-29T08:16:21;3.22;;;1.85;;
49510;SDS011;35413;48.776;9.204;2022-07-29T08:18:47;5.22;;;1.92;;
49510;SDS011;35413;48.776;9.204;2022-07-29T08:21:14;2.75;;;1.70;;
49510;SDS011;35413;48.776;9.204;2022-07-29T08:23:40;2.45;;;1.52;;
49510;SDS011;35413;48.776;9.204;2022-07-29T08:26:17;2.97;;;1.80;;
49510;SDS011;35413;48.776;9.204;2022-07-29T08:28:45;2.40;;;1.50;;
49510;SDS011;35413;48.776;9.204;2022-07-29T08:31:14;3.08;;;2.10;;
49510;SDS011;35413;48.776;9.204;2022-07-29T08:33:40;6.68;;;1.92;;
49510;SDS011;35413;48.776;9.204;2022-07-29T08:36:06;8.82;;;1.80;;
49510;SDS011;35413;48.776;9.204;2022-07-29T08:38:32;4.90;;;1.83;;
49510;SDS011;35413;48.776;9.204;2022-07-29T08:40:58;4.80;;;1.73;;
49510;SDS011;35413;48.776;9.204;2022-07-29T08:43:25;3.15;;;1.77;;
49510;SDS011;35413;48.776;9.204;2022-07-29T08:45:52;4.55;;;1.88;;
49510;SDS011;35413;48.776;9.204;2022-07-29T08:48:19;3.17;;;1.85;;
49510;SDS011;35413;48.776;9.204;2022-07-29T08:50:50;3.38;;;1.90;;
49510;SDS011;35413;48.776;9.204;2022-07-29T08:53:19;2.10;;;1.60;;
49510;SDS011;35413;48.776;9.204;2022-07-29T08:55:49;3.25;;;2.15;;
49510;SDS011;35413;48.776;9.204;2022-07-29T08:58:15;5.20;;;1.63;;
49510;SDS011;35413;48.776;9.204;2022-07-29T09:00:51;3.33;;;1.70;;
49510;SDS011;35413;48.776;9.204;2022-07-29T09:03:19;2.47;;;1.67;;
49510;SDS011;35413;48.776;9.204;2022-07-29T09:05:47;3.10;;;1.65;;
49510;SDS011;35413;48.776;9.204;2022-07-29T09:08:14;6.03;;;2.13;;
49510;SDS011;35413;48.776;9.204;2022-07-29T09:10:40;3.00;;;1.88;;
49510;SDS011;35413;48.776;9.204;2022-07-29T09:13:06;5.78;;;2.10;;
49510;SDS011;35413;48.776;9.204;2022-07-29T09:15:32;4.55;;;1.83;;
49510;SDS011;35413;48.776;9.204;2022-07-29T09:17:58;3.15;;;1.40;;
49510;SDS011;35413;48.776;9.204;2022-07-29T09:20:24;5.03;;;1.80;;
49510;SDS011;35413;48.776;9.204;2022-07-29T09:22:51;6.38;;;1.90;;
49510;SDS011;35413;48.776;9.204;2022-07-29T09:25:37;5.20;;;1.90;;
49510;SDS011;35413;48.776;9.204;2022-07-29T09:28:08;3.20;;;1.90;;
49510;SDS011;35413;48.776;9.204;2022-07-29T09:30:54;4.43;;;1.65;;
49510;SDS011;35413;48.776;9.204;2022-07-29T09:33:23;2.75;;;1.90;;
49510;SDS011;35413;48.776;9.204;2022-07-29T09:35:59;2.72;;;1.90;;
49510;SDS011;35413;48.776;9.204;2022-07-29T09:38:28;4.95;;;2.33;;
49510;SDS011;35413;48.776;9.204;2022-07-29T09:40:57;3.25;;;2.10;;
49510;SDS011;35413;48.776;9.204;2022-07-29T09:43:24;5.30;;;1.98;;
49510;SDS011;35413;48.776;9.204;2022-07-29T09:45:50;4.10;;;1.95;;
49510;SDS011;35413;48.776;9.204;2022-07-29T09:48:17;3.25;;;1.80;;
49510;SDS011;35413;48.776;9.204;2022-07-29T09:50:44;1.70;;;1.60;;
49510;SDS011;35413;48.776;9.204;2022-07-29T09:53:11;4.78;;;1.90;;
49510;SDS011;35413;48.776;9.204;2022-07-29T09:55:54;5.18;;;1.98;;
49510;SDS011;35413;48.776;9.204;2022-07-29T09:58:20;3.63;;;2.00;;
49510;SDS011;35413;48.776;9.204;2022-07-29T10:00:48;5.40;;;2.15;;
49510;SDS011;35413;48.776;9.204;2022-07-29T10:03:15;5.65;;;2.05;;
49510;SDS011;35413;48.776;9.204;2022-07-29T10:05:41;4.78;;;1.90;;
49510;SDS011;35413;48.776;9.204;2022-07-29T10:08:08;6.97;;;2.80;;
49510;SDS011;35413;48.776;9.204;2022-07-29T10:10:36;5.65;;;2.25;;
49510;SDS011;35413;48.776;9.204;2022-07-29T10:13:07;5.20;;;2.05;;
49510;SDS011;35413;48.776;9.204;2022-07-29T10:15:38;5.05;;;2.00;;
49510;SDS011;35413;48.776;9.204;2022-07-29T10:18:10;8.38;;;2.55;;
49510;SDS011;35413;48.776;9.204;2022-07-29T10:20:37;4.32;;;2.30;;
49510;SDS011;35413;48.776;9.204;2022-07-29T10:23:03;5.45;;;2.03;;
49510;SDS011;35413;48.776;9.204;2022-07-29T10:25:29;2.70;;;1.85;;
49510;SDS011;35413;48.776;9.204;2022-07-29T10:27:55;5.05;;;2.05;;
49510;SDS011;35413;48.776;9.204;2022-07-29T10:30:23;4.80;;;2.40;;
49510;SDS011;35413;48.776;9.204;2022-07-29T10:41:36;7.72;;;3.63;;
49510;SDS011;35413;48.776;9.204;2022-07-29T10:44:06;7.15;;;2.80;;
49510;SDS011;35413;48.776;9.204;2022-07-29T10:46:38;4.53;;;2.50;;
49510;SDS011;35413;48.776;9.204;2022-07-29T10:57:11;9.73;;;3.30;;
49510;SDS011;35413;48.776;9.204;2022-07-29T10:59:37;7.55;;;2.78;;
49510;SDS011;35413;48.776;9.204;2022-07-29T11:02:09;4.07;;;2.30;;
49510;SDS011;35413;48.776;9.204;2022-07-29T11:07:24;5.47;;;2.42;;
49510;SDS011;35413;48.776;9.204;2022-07-29T11:15:10;4.38;;;2.20;;
49510;SDS011;35413;48.776;9.204;2022-07-29T11:20:35;4.80;;;2.47;;
49510;SDS011;35413;48.776;9.204;2022-07-29T11:39:47;11.00;;;2.72;;
49510;SDS011;35413;48.776;9.204;2022-07-29T11:45:00;4.85;;;2.28;;
49510;SDS011;35413;48.776;9.204;2022-07-29T11:47:29;3.90;;;2.42;;
49510;SDS011;35413;48.776;9.204;2022-07-29T11:49:56;5.90;;;2.33;;
49510;SDS011;35413;48.776;9.204;2022-07-29T11:52:23;6.10;;;2.95;;
49510;SDS011;35413;48.776;9.204;2022-07-29T11:54:57;10.75;;;2.90;;
49510;SDS011;35413;48.776;9.204;2022-07-29T11:57:26;7.22;;;2.63;;
49510;SDS011;35413;48.776;9.204;2022-07-29T11:59:53;5.30;;;2.08;;
49510;SDS011;35413;48.776;9.204;2022-07-29T12:02:20;6.35;;;3.20;;
49510;SDS011;35413;48.776;9.204;2022-07-29T12:04:49;5.15;;;2.78;;
49510;SDS011;35413;48.776;9.204;2022-07-29T12:07:31;3.30;;;2.67;;
49510;SDS011;35413;48.776;9.204;2022-07-29T12:09:58;3.83;;;2.22;;
49510;SDS011;35413;48.776;9.204;2022-07-29T12:12:24;4.05;;;2.72;;
49510;SDS011;35413;48.776;9.204;2022-07-29T12:14:51;5.30;;;2.50;;
49510;SDS011;35413;48.776;9.204;2022-07-29T12:17:30;3.83;;;2.40;;
49510;SDS011;35413;48.776;9.204;2022-07-29T12:19:57;5.85;;;3.15;;
49510;SDS011;35413;48.776;9.204;2022-07-29T12:22:31;3.60;;;2.03;;
49510;SDS011;35413;48.776;9.204;2022-07-29T12:25:05;3.72;;;2.08;;
49510;SDS011;35413;48.776;9.204;2022-07-29T12:27:32;3.55;;;2.47;;
49510;SDS011;35413;48.776;9.204;2022-07-29T12:29:58;5.32;;;2.13;;
49510;SDS011;35413;48.776;9.204;2022-07-29T12:35:20;6.85;;;2.15;;
49510;SDS011;35413;48.776;9.204;2022-07-29T12:37:46;3.15;;;2.10;;
49510;SDS011;35413;48.776;9.204;2022-07-29T12:40:16;3.47;;;2.28;;
49510;SDS011;35413;48.776;9.204;2022-07-29T12:45:55;6.28;;;2.60;;
49510;SDS011;35413;48.776;9.204;2022-07-29T12:48:34;3.63;;;2.13;;
49510;SDS011;35413;48.776;9.204;2022-07-29T12:51:02;5.30;;;1.98;;
49510;SDS011;35413;48.776;9.204;2022-07-29T12:53:29;4.10;;;1.80;;
49510;SDS011;35413;48.776;9.204;2022-07-29T12:55:56;4.60;;;1.98;;
49510;SDS011;35413;48.776;9.204;2022-07-29T12:58:28;3.65;;;2.40;;
49510;SDS011;35413;48.776;9.204;2022-07-29T13:03:41;3.22;;;1.80;;
49510;SDS011;35413;48.776;9.204;2022-07-29T13:09:03;3.25;;;2.35;;
49510;SDS011;35413;48.776;9.204;2022-07-29T13:11:40;3.10;;;1.90;;
49510;SDS011;35413;48.776;9.204;2022-07-29T13:14:09;3.45;;;2.33;;
49510;SDS011;35413;48.776;9.204;2022-07-29T13:16:36;3.03;;;2.05;;
49510;SDS011;35413;48.776;9.204;2022-07-29T13:19:32;3.97;;;1.90;;
49510;SDS011;35413;48.776;9.204;2022-07-29T13:22:00;2.28;;;1.60;;
49510;SDS011;35413;48.776;9.204;2022-07-29T13:24:26;4.18;;;2.03;;
49510;SDS011;35413;48.776;9.204;2022-07-29T13:26:52;4.28;;;1.85;;
49510;SDS011;35413;48.776;9.204;2022-07-29T13:29:17;1.98;;;1.70;;
49510;SDS011;35413;48.776;9.204;2022-07-29T13:31:43;6.38;;;2.05;;
49510;SDS011;35413;48.776;9.204;2022-07-29T13:34:09;2.50;;;1.70;;
49510;SDS011;35413;48.776;9.204;2022-07-29T13:36:34;4.57;;;2.05;;
49510;SDS011;35413;48.776;9.204;2022-07-29T13:39:00;5.70;;;2.10;;
49510;SDS011;35413;48.776;9.204;2022-07-29T13:41:27;3.28;;;2.13;;
49510;SDS011;35413;48.776;9.204;2022-07-29T13:43:54;2.53;;;1.75;;
49510;SDS011;35413;48.776;9.204;2022-07-29T13:46:20;4.45;;;1.83;;
49510;SDS011;35413;48.776;9.204;2022-07-29T13:48:46;3.17;;;1.92;;
49510;SDS011;35413;48.776;9.204;2022-07-29T13:51:12;3.58;;;1.85;;
49510;SDS011;35413;48.776;9.204;2022-07-29T13:53:39;7.85;;;2.45;;
49510;SDS011;35413;48.776;9.204;2022-07-29T13:56:07;4.10;;;2.10;;
49510;SDS011;35413;48.776;9.204;2022-07-29T13:58:33;3.63;;;1.85;;
49510;SDS011;35413;48.776;9.204;2022-07-29T14:00:59;3.67;;;1.92;;
49510;SDS011;35413;48.776;9.204;2022-07-29T14:03:25;4.22;;;2.15;;
49510;SDS011;35413;48.776;9.204;2022-07-29T14:05:50;4.47;;;2.10;;
49510;SDS011;35413;48.776;9.204;2022-07-29T14:08:16;3.38;;;2.15;;
49510;SDS011;35413;48.776;9.204;2022-07-29T14:10:42;5.47;;;2.30;;
49510;SDS011;35413;48.776;9.204;2022-07-29T14:13:08;5.22;;;2.28;;
49510;SDS011;35413;48.776;9.204;2022-07-29T14:15:33;2.63;;;2.00;;
49510;SDS011;35413;48.776;9.204;2022-07-29T14:17:59;2.88;;;2.17;;
49510;SDS011;35413;48.776;9.204;2022-07-29T14:20:25;3.35;;;1.80;;
49510;SDS011;35413;48.776;9.204;2022-07-29T14:22:53;6.03;;;2.60;;
49510;SDS011;35413;48.776;9.204;2022-07-29T14:25:18;3.25;;;1.95;;
49510;SDS011;35413;48.776;9.204;2022-07-29T14:27:44;3.00;;;1.77;;
49510;SDS011;35413;48.776;9.204;2022-07-29T14:30:10;2.53;;;2.00;;
49510;SDS011;35413;48.776;9.204;2022-07-29T14:32:36;2.60;;;2.20;;
49510;SDS011;35413;48.776;9.204;2022-07-29T14:35:01;2.47;;;2.22;;
49510;SDS011;35413;48.776;9.204;2022-07-29T14:37:27;2.85;;;2.03;;
49510;SDS011;35413;48.776;9.204;2022-07-29T14:39:53;3.22;;;2.00;;
49510;SDS011;35413;48.776;9.204;2022-07-29T14:42:22;2.92;;;1.73;;
49510;SDS011;35413;48.776;9.204;2022-07-29T14:44:48;2.63;;;1.85;;
49510;SDS011;35413;48.776;9.204;2022-07-29T14:47:14;2.95;;;2.08;;
49510;SDS011;35413;48.776;9.204;2022-07-29T14:49:39;5.50;;;2.45;;
49510;SDS011;35413;48.776;9.204;2022-07-29T14:52:05;5.32;;;2.47;;
49510;SDS011;35413;48.776;9.204;2022-07-29T14:54:31;4.03;;;2.33;;
49510;SDS011;35413;48.776;9.204;2022-07-29T14:56:57;2.50;;;1.95;;
49510;SDS011;35413;48.776;9.204;2022-07-29T14:59:22;3.45;;;2.33;;
49510;SDS011;35413;48.776;9.204;2022-07-29T15:01:48;2.17;;;1.90;;
49510;SDS011;35413;48.776;9.204;2022-07-29T15:04:14;4.10;;;1.80;;
49510;SDS011;35413;48.776;9.204;2022-07-29T15:06:40;2.97;;;1.90;;
49510;SDS011;35413;48.776;9.204;2022-07-29T15:09:06;3.05;;;2.05;;
49510;SDS011;35413;48.776;9.204;2022-07-29T15:11:31;2.65;;;1.90;;
49510;SDS011;35413;48.776;9.204;2022-07-29T15:13:57;4.22;;;2.50;;
49510;SDS011;35413;48.776;9.204;2022-07-29T15:16:22;2.63;;;2.08;;
49510;SDS011;35413;48.776;9.204;2022-07-29T15:18:48;3.90;;;2.00;;
49510;SDS011;35413;48.776;9.204;2022-07-29T15:21:14;4.53;;;2.25;;
49510;SDS011;35413;48.776;9.204;2022-07-29T15:23:40;3.25;;;2.10;;
49510;SDS011;35413;48.776;9.204;2022-07-29T15:26:06;4.90;;;2.38;;
49510;SDS011;35413;48.776;9.204;2022-07-29T15:28:31;2.35;;;2.03;;
49510;SDS011;35413;48.776;9.204;2022-07-29T15:30:57;2.53;;;2.33;;
49510;SDS011;35413;48.776;9.204;2022-07-29T15:33:23;4.28;;;2.40;;
49510;SDS011;35413;48.776;9.204;2022-07-29T15:35:48;5.28;;;2.20;;
49510;SDS011;35413;48.776;9.204;2022-07-29T15:38:15;3.28;;;2.28;;
49510;SDS011;35413;48.776;9.204;2022-07-29T15:40:41;3.80;;;3.28;;
49510;SDS011;35413;48.776;9.204;2022-07-29T15:43:08;4.53;;;3.40;;
49510;SDS011;35413;48.776;9.204;2022-07-29T15:45:35;4.28;;;3.40;;
49510;SDS011;35413;48.776;9.204;2022-07-29T15:48:01;3.38;;;2.67;;
49510;SDS011;35413;48.776;9.204;2022-07-29T15:50:27;4.72;;;2.70;;
49510;SDS011;35413;48.776;9.204;2022-07-29T15:52:52;3.25;;;2.38;;
49510;SDS011;35413;48.776;9.204;2022-07-29T15:55:18;4.75;;;2.95;;
49510;SDS011;35413;48.776;9.204;2022-07-29T15:57:43;3.00;;;2.70;;
49510;SDS011;35413;48.776;9.204;2022-07-29T16:00:09;4.15;;;3.00;;
49510;SDS011;35413;48.776;9.204;2022-07-29T16:02:35;3.30;;;2.42;;
49510;SDS011;35413;48.776;9.204;2022-07-29T16:05:01;5.57;;;3.03;;
49510;SDS011;35413;48.776;9.204;2022-07-29T16:07:27;4.07;;;3.28;;
49510;SDS011;35413;48.776;9.204;2022-07-29T16:09:53;4.53;;;2.60;;